createdAt,value
2019-05-25T00:01:23.775Z,13.03
2019-05-25T00:03:55.072Z,11.93
2019-05-25T00:06:26.379Z,11.23
2019-05-25T00:08:57.634Z,14.77
2019-05-25T00:11:28.837Z,12.17
2019-05-25T00:14:00.109Z,11.73
2019-05-25T00:16:31.269Z,14.43
2019-05-25T00:19:02.622Z,11.90
2019-05-25T00:21:34.928Z,14.03
2019-05-25T00:24:12.351Z,12.83
2019-05-25T00:26:39.245Z,13.67
2019-05-25T00:29:10.413Z,14.20
2019-05-25T00:31:41.720Z,14.30
2019-05-25T00:34:13.086Z,14.37
2019-05-25T00:36:44.405Z,13.50
2019-05-25T00:39:15.677Z,14.63
2019-05-25T00:41:46.876Z,15.90
2019-05-25T00:44:18.157Z,15.27
2019-05-25T00:46:49.453Z,19.63
2019-05-25T00:49:20.935Z,16.07
2019-05-25T00:51:52.208Z,19.97
2019-05-25T00:54:27.954Z,19.80
2019-05-25T00:56:56.484Z,23.43
2019-05-25T00:59:28.742Z,17.77
2019-05-25T01:01:59.928Z,20.17
2019-05-25T01:04:31.091Z,21.23
2019-05-25T01:07:02.310Z,19.47
2019-05-25T01:09:33.620Z,18.93
2019-05-25T01:12:04.912Z,18.37
2019-05-25T01:14:36.077Z,18.93
2019-05-25T01:17:08.384Z,19.20
2019-05-25T01:19:39.559Z,17.33
2019-05-25T01:22:10.744Z,22.80
2019-05-25T01:24:44.820Z,18.07
2019-05-25T01:27:15.015Z,20.67
2019-05-25T01:29:46.269Z,23.33
2019-05-25T01:32:17.507Z,20.73
2019-05-25T01:34:48.668Z,20.80
2019-05-25T01:37:19.969Z,18.03
2019-05-25T01:39:51.276Z,19.10
2019-05-25T01:42:22.528Z,20.50
2019-05-25T01:44:53.760Z,21.53
2019-05-25T01:47:24.944Z,22.17
2019-05-25T01:49:56.185Z,20.87
2019-05-25T01:52:27.472Z,15.53
2019-05-25T01:55:00.178Z,17.57
2019-05-25T01:57:31.830Z,18.80
2019-05-25T02:00:04.990Z,25.63
2019-05-25T02:02:36.157Z,21.97
2019-05-25T02:05:07.447Z,19.43
2019-05-25T02:07:39.807Z,27.17
2019-05-25T02:10:11.169Z,25.30
2019-05-25T02:12:42.454Z,19.33
2019-05-25T02:15:13.725Z,18.90
2019-05-25T02:17:44.910Z,18.33
2019-05-25T02:20:16.275Z,17.57
2019-05-25T02:22:47.465Z,17.77
2019-05-25T02:25:19.090Z,30.13
2019-05-25T02:27:50.399Z,17.00
2019-05-25T02:30:24.365Z,19.27
2019-05-25T02:32:55.570Z,21.13
2019-05-25T02:35:27.758Z,18.57
2019-05-25T02:37:59.051Z,22.03
2019-05-25T02:40:30.224Z,20.40
2019-05-25T02:43:01.605Z,25.27
2019-05-25T02:45:33.226Z,24.93
2019-05-25T02:48:04.523Z,23.27
2019-05-25T02:50:35.713Z,24.13
2019-05-25T02:53:06.942Z,18.73
2019-05-25T02:55:38.101Z,20.57
2019-05-25T02:58:09.307Z,19.97
2019-05-25T03:00:40.488Z,22.33
2019-05-25T03:03:11.884Z,27.70
2019-05-25T03:05:43.392Z,27.83
2019-05-25T03:08:14.677Z,27.03
2019-05-25T03:10:47.269Z,24.63
2019-05-25T03:13:18.835Z,25.33
2019-05-25T03:15:50.071Z,26.00
2019-05-25T03:18:21.329Z,19.53
2019-05-25T03:20:52.540Z,21.50
2019-05-25T03:23:24.883Z,20.07
2019-05-25T03:25:56.171Z,21.30
2019-05-25T03:28:27.442Z,18.60
2019-05-25T03:30:58.774Z,26.13
2019-05-25T03:33:29.944Z,23.70
2019-05-25T03:36:01.371Z,18.53
2019-05-25T03:38:32.664Z,20.50
2019-05-25T03:41:03.877Z,21.17
2019-05-25T03:43:35.139Z,16.07
2019-05-25T03:46:06.328Z,19.77
2019-05-25T03:48:37.517Z,20.27
2019-05-25T03:51:08.731Z,20.90
2019-05-25T03:53:39.986Z,21.03
2019-05-25T03:56:11.228Z,24.90
2019-05-25T03:58:42.386Z,18.57
2019-05-25T04:01:13.573Z,26.00
2019-05-25T04:03:44.794Z,24.03
2019-05-25T04:06:16.043Z,30.07
2019-05-25T04:08:47.230Z,25.77
2019-05-25T04:11:18.528Z,30.93
2019-05-25T04:13:49.763Z,30.23
2019-05-25T04:16:21.137Z,26.77
2019-05-25T04:18:52.403Z,29.97
2019-05-25T04:21:23.741Z,26.53
2019-05-25T04:23:54.963Z,25.60
2019-05-25T04:26:27.583Z,17.33
2019-05-25T04:28:59.192Z,18.03
2019-05-25T04:31:31.639Z,17.80
2019-05-25T04:34:03.037Z,13.17
2019-05-25T04:36:34.346Z,14.23
2019-05-25T04:39:06.585Z,13.07
2019-05-25T04:41:37.788Z,15.10
2019-05-25T04:44:09.079Z,14.00
2019-05-25T04:46:53.723Z,11.37
2019-05-25T04:49:24.900Z,12.20
2019-05-25T04:51:57.200Z,10.67
2019-05-25T04:54:28.388Z,11.17
2019-05-25T04:56:59.578Z,9.63
2019-05-25T04:59:31.015Z,13.23
2019-05-25T05:02:02.654Z,12.67
2019-05-25T05:04:33.996Z,12.33
2019-05-25T05:07:05.207Z,11.60
2019-05-25T05:09:36.668Z,10.30
2019-05-25T05:12:08.143Z,9.57
2019-05-25T05:14:39.730Z,8.90
2019-05-25T05:17:11.608Z,7.07
2019-05-25T05:19:43.094Z,10.83
2019-05-25T05:22:14.351Z,8.37
2019-05-25T05:24:46.272Z,7.50
2019-05-25T05:27:18.217Z,9.57
2019-05-25T05:29:49.468Z,9.80
2019-05-25T05:32:27.650Z,11.23
2019-05-25T05:34:55.030Z,13.47
2019-05-25T05:37:26.528Z,12.77
2019-05-25T05:39:58.182Z,9.07
2019-05-25T05:42:30.034Z,10.87
2019-05-25T05:45:02.858Z,9.77
2019-05-25T05:47:34.495Z,10.67
2019-05-25T05:50:06.946Z,17.33
2019-05-25T05:52:38.729Z,11.77
2019-05-25T05:55:10.489Z,10.23
2019-05-25T05:57:41.849Z,15.47
2019-05-25T06:00:16.680Z,9.40
2019-05-25T06:02:48.182Z,6.27
2019-05-25T06:05:23.872Z,5.77
2019-05-25T06:07:55.395Z,8.53
2019-05-25T06:10:26.711Z,6.30
2019-05-25T06:12:58.168Z,6.87
2019-05-25T06:15:29.465Z,6.37
2019-05-25T06:18:00.657Z,7.70
2019-05-25T06:20:32.086Z,7.87
2019-05-25T06:23:07.665Z,7.33
2019-05-25T06:25:37.647Z,6.23
2019-05-25T06:28:08.971Z,8.80
2019-05-25T06:30:41.244Z,8.53
2019-05-25T06:33:12.549Z,8.30
2019-05-25T06:35:43.864Z,6.97
2019-05-25T06:38:15.166Z,6.37
2019-05-25T06:40:46.846Z,5.40
2019-05-25T06:43:18.517Z,10.13
2019-05-25T06:45:49.762Z,8.30
2019-05-25T06:48:21.951Z,9.60
2019-05-25T06:50:53.169Z,8.93
2019-05-25T06:53:24.483Z,5.33
2019-05-25T06:55:55.813Z,7.17
2019-05-25T06:58:27.461Z,6.70
2019-05-25T07:00:59.794Z,6.97
2019-05-25T07:03:31.377Z,5.00
2019-05-25T07:06:02.788Z,5.70
2019-05-25T07:08:35.016Z,5.03
2019-05-25T07:11:06.417Z,7.73
2019-05-25T07:13:37.774Z,2.83
2019-05-25T07:16:10.088Z,3.90
2019-05-25T07:18:41.800Z,3.83
2019-05-25T07:21:13.312Z,3.73
2019-05-25T07:23:44.528Z,5.23
2019-05-25T07:26:16.862Z,5.27
2019-05-25T07:28:48.128Z,5.83
2019-05-25T07:31:19.415Z,2.30
2019-05-25T07:33:50.665Z,4.47
2019-05-25T07:36:21.827Z,3.70
2019-05-25T07:38:53.075Z,3.10
2019-05-25T07:41:24.496Z,3.03
2019-05-25T07:43:55.932Z,3.50
2019-05-25T07:46:27.332Z,3.23
2019-05-25T07:48:58.686Z,3.67
2019-05-25T07:51:30.064Z,4.70
2019-05-25T07:54:01.406Z,3.37
2019-05-25T07:56:33.622Z,4.97
2019-05-25T07:59:04.899Z,2.80
2019-05-25T08:01:36.357Z,5.73
2019-05-25T08:04:07.730Z,5.63
2019-05-25T08:06:38.980Z,5.17
2019-05-25T08:09:10.622Z,3.13
2019-05-25T08:11:42.623Z,4.37
2019-05-25T08:14:13.930Z,4.33
2019-05-25T08:16:45.250Z,3.40
2019-05-25T08:19:16.641Z,4.50
2019-05-25T08:21:48.656Z,3.73
2019-05-25T08:24:20.088Z,2.97
2019-05-25T08:26:51.353Z,3.57
2019-05-25T08:29:23.102Z,5.27
2019-05-25T08:31:55.097Z,3.50
2019-05-25T08:34:26.627Z,4.57
2019-05-25T08:36:57.899Z,3.57
2019-05-25T08:39:29.304Z,2.87
2019-05-25T08:42:00.659Z,5.23
2019-05-25T08:44:31.969Z,2.70
2019-05-25T08:47:03.483Z,5.63
2019-05-25T08:49:35.073Z,3.50
2019-05-25T08:52:06.338Z,5.13
2019-05-25T08:54:37.573Z,5.60
2019-05-25T08:57:08.834Z,2.30
2019-05-25T08:59:40.290Z,2.57
2019-05-25T09:02:11.937Z,3.83
2019-05-25T09:04:43.760Z,3.33
2019-05-25T09:07:15.219Z,2.83
2019-05-25T09:09:47.864Z,6.57
2019-05-25T09:12:19.164Z,3.97
2019-05-25T09:14:51.567Z,3.35
2019-05-25T09:17:22.930Z,3.20
2019-05-25T09:19:54.262Z,5.37
2019-05-25T09:22:25.632Z,3.20
2019-05-25T09:24:56.894Z,2.93
2019-05-25T09:27:28.203Z,6.17
2019-05-25T09:29:59.887Z,2.50
2019-05-25T09:32:31.216Z,2.57
2019-05-25T09:35:06.493Z,2.83
2019-05-25T09:37:38.783Z,3.23
2019-05-25T09:40:10.182Z,4.53
2019-05-25T09:42:41.765Z,3.50
2019-05-25T09:45:14.410Z,3.13
2019-05-25T09:47:45.832Z,7.47
2019-05-25T09:50:17.429Z,3.60
2019-05-25T09:52:48.668Z,3.10
2019-05-25T09:55:20.142Z,4.53
2019-05-25T09:57:51.340Z,3.73
2019-05-25T10:00:22.909Z,3.73
2019-05-25T10:02:54.579Z,18.57
2019-05-25T10:05:25.813Z,27.87
2019-05-25T10:07:57.076Z,35.77
2019-05-25T10:10:28.266Z,29.37
2019-05-25T10:12:59.546Z,10.83
2019-05-25T10:15:31.068Z,4.83
2019-05-25T10:18:02.255Z,3.47
2019-05-25T10:20:35.030Z,5.90
2019-05-25T10:23:06.353Z,7.67
2019-05-25T10:25:37.526Z,3.13
2019-05-25T10:28:09.127Z,3.70
2019-05-25T10:30:40.421Z,4.43
2019-05-25T10:33:12.124Z,2.73
2019-05-25T10:35:43.561Z,4.67
2019-05-25T10:38:14.821Z,4.30
2019-05-25T10:40:46.128Z,4.20
2019-05-25T10:43:17.737Z,4.53
2019-05-25T10:45:49.256Z,2.40
2019-05-25T10:48:20.539Z,3.53
2019-05-25T10:50:51.943Z,2.97
2019-05-25T10:53:23.289Z,3.27
2019-05-25T10:55:54.565Z,2.87
2019-05-25T10:58:25.946Z,5.67
2019-05-25T11:00:57.634Z,2.77
2019-05-25T11:03:29.006Z,4.13
2019-05-25T11:06:00.590Z,4.67
2019-05-25T11:08:32.077Z,2.30
2019-05-25T11:11:03.324Z,7.60
2019-05-25T11:13:34.605Z,3.70
2019-05-25T11:16:06.950Z,2.20
2019-05-25T11:18:38.292Z,3.93
2019-05-25T11:21:09.614Z,8.23
2019-05-25T11:23:41.102Z,2.47
2019-05-25T11:26:12.562Z,3.50
2019-05-25T11:28:44.209Z,3.33
2019-05-25T11:31:15.677Z,4.37
2019-05-25T11:33:47.265Z,3.37
2019-05-25T11:36:19.123Z,2.33
2019-05-25T11:38:50.386Z,8.10
2019-05-25T11:41:21.792Z,3.77
2019-05-25T11:43:53.184Z,3.00
2019-05-25T11:46:24.749Z,3.23
2019-05-25T11:48:56.782Z,2.90
2019-05-25T11:51:28.355Z,4.10
2019-05-25T11:53:59.833Z,2.13
2019-05-25T11:56:31.598Z,5.53
2019-05-25T11:59:03.018Z,4.97
2019-05-25T12:01:34.379Z,4.73
2019-05-25T12:04:05.544Z,3.23
2019-05-25T12:06:37.035Z,2.90
2019-05-25T12:09:08.487Z,4.10
2019-05-25T12:11:40.449Z,2.90
2019-05-25T12:14:11.836Z,7.30
2019-05-25T12:16:44.141Z,3.07
2019-05-25T12:19:15.416Z,3.00
2019-05-25T12:21:47.216Z,2.87
2019-05-25T12:24:18.497Z,7.30
2019-05-25T12:26:50.001Z,1.90
2019-05-25T12:29:21.445Z,4.07
2019-05-25T12:32:03.434Z,4.17
2019-05-25T12:34:26.441Z,2.40
2019-05-25T12:36:57.732Z,3.00
2019-05-25T12:39:29.204Z,6.27
2019-05-25T12:42:00.669Z,8.47
2019-05-25T12:44:34.359Z,5.90
2019-05-25T12:47:05.809Z,3.13
2019-05-25T12:49:50.041Z,7.90
2019-05-25T12:52:11.547Z,2.97
2019-05-25T12:54:43.054Z,2.43
2019-05-25T12:57:14.392Z,3.50
2019-05-25T12:59:45.953Z,2.43
2019-05-25T13:02:17.560Z,2.90
2019-05-25T13:04:49.188Z,3.80
2019-05-25T13:07:20.813Z,3.93
2019-05-25T13:09:52.078Z,3.17
2019-05-25T13:12:23.603Z,6.13
2019-05-25T13:14:54.917Z,10.13
2019-05-25T13:17:26.287Z,7.20
2019-05-25T13:19:57.697Z,5.40
2019-05-25T13:22:29.152Z,5.93
2019-05-25T13:25:00.337Z,5.50
2019-05-25T13:27:31.776Z,4.47
2019-05-25T13:30:05.546Z,10.40
2019-05-25T13:32:37.369Z,5.07
2019-05-25T13:35:09.099Z,5.43
2019-05-25T13:37:40.610Z,6.50
2019-05-25T13:40:12.231Z,4.07
2019-05-25T13:42:43.774Z,5.73
2019-05-25T13:45:15.109Z,5.17
2019-05-25T13:47:46.546Z,6.60
2019-05-25T13:50:17.997Z,4.87
2019-05-25T13:52:49.406Z,8.07
2019-05-25T13:55:20.864Z,5.00
2019-05-25T13:57:52.698Z,8.50
2019-05-25T14:00:24.194Z,5.57
2019-05-25T14:02:55.514Z,5.67
2019-05-25T14:05:26.957Z,5.37
2019-05-25T14:07:58.388Z,6.47
2019-05-25T14:10:30.120Z,5.30
2019-05-25T14:13:01.711Z,7.00
2019-05-25T14:15:33.602Z,6.60
2019-05-25T14:18:04.854Z,5.87
2019-05-25T14:20:36.521Z,3.53
2019-05-25T14:23:07.824Z,5.33
2019-05-25T14:25:39.673Z,11.30
2019-05-25T14:28:11.073Z,5.97
2019-05-25T14:30:42.774Z,5.33
2019-05-25T14:33:14.716Z,6.53
2019-05-25T14:35:46.057Z,5.57
2019-05-25T14:38:17.466Z,5.33
2019-05-25T14:40:49.128Z,3.53
2019-05-25T14:43:20.532Z,5.83
2019-05-25T14:45:53.366Z,7.50
2019-05-25T14:48:25.035Z,4.53
2019-05-25T14:50:57.105Z,5.83
2019-05-25T14:53:28.617Z,3.40
2019-05-25T14:55:59.784Z,6.07
2019-05-25T14:58:31.080Z,6.03
2019-05-25T15:01:03.788Z,4.00
2019-05-25T15:03:35.061Z,8.50
2019-05-25T15:06:06.373Z,7.43
2019-05-25T15:08:37.653Z,3.97
2019-05-25T15:11:09.223Z,5.23
2019-05-25T15:13:40.398Z,5.23
2019-05-25T15:16:12.290Z,11.20
2019-05-25T15:18:43.629Z,9.47
2019-05-25T15:21:14.921Z,7.97
2019-05-25T15:23:46.141Z,4.67
2019-05-25T15:26:17.792Z,9.10
2019-05-25T15:28:49.154Z,6.23
2019-05-25T15:31:21.569Z,5.33
2019-05-25T15:33:53.130Z,9.27
2019-05-25T15:36:24.418Z,10.57
2019-05-25T15:38:56.092Z,3.37
2019-05-25T15:41:27.537Z,3.30
2019-05-25T15:43:58.947Z,6.83
2019-05-25T15:46:30.161Z,3.47
2019-05-25T15:49:01.899Z,4.00
2019-05-25T15:51:33.925Z,4.03
2019-05-25T15:54:09.762Z,8.53
2019-05-25T15:56:38.253Z,13.27
2019-05-25T15:59:09.626Z,6.07
2019-05-25T16:01:42.403Z,3.90
2019-05-25T16:04:13.720Z,5.17
2019-05-25T16:06:44.888Z,3.57
2019-05-25T16:09:16.688Z,4.70
2019-05-25T16:11:48.119Z,4.63
2019-05-25T16:14:19.442Z,5.30
2019-05-25T16:16:50.998Z,5.73
2019-05-25T16:19:22.430Z,2.67
2019-05-25T16:21:54.209Z,4.30
2019-05-25T16:24:25.761Z,2.17
2019-05-25T16:26:57.112Z,6.00
2019-05-25T16:29:28.432Z,6.17
2019-05-25T16:32:00.173Z,5.77
2019-05-25T16:34:31.495Z,5.47
2019-05-25T16:37:03.192Z,7.00
2019-05-25T16:39:34.713Z,7.23
2019-05-25T16:42:06.333Z,6.17
2019-05-25T16:44:37.628Z,4.77
2019-05-25T16:47:09.001Z,4.30
2019-05-25T16:49:40.697Z,6.10
2019-05-25T16:52:12.163Z,4.00
2019-05-25T16:54:43.578Z,3.77
2019-05-25T16:57:15.030Z,2.80
2019-05-25T16:59:46.207Z,5.07
2019-05-25T17:02:18.897Z,3.57
2019-05-25T17:04:50.320Z,5.30
2019-05-25T17:07:21.721Z,10.47
2019-05-25T17:09:53.149Z,5.73
2019-05-25T17:12:24.478Z,4.57
2019-05-25T17:14:55.838Z,5.30
2019-05-25T17:17:27.627Z,8.20
2019-05-25T17:19:59.118Z,4.00
2019-05-25T17:22:31.520Z,5.00
2019-05-25T17:25:06.231Z,7.23
2019-05-25T17:27:37.671Z,4.17
2019-05-25T17:30:09.383Z,9.23
2019-05-25T17:32:40.690Z,8.77
2019-05-25T17:35:12.168Z,15.73
2019-05-25T17:37:43.554Z,3.03
2019-05-25T17:40:15.440Z,4.43
2019-05-25T17:42:46.887Z,7.93
2019-05-25T17:45:18.138Z,4.53
2019-05-25T17:47:49.536Z,3.47
2019-05-25T17:50:20.888Z,4.87
2019-05-25T17:52:52.338Z,4.23
2019-05-25T17:55:23.505Z,5.80
2019-05-25T17:57:55.343Z,6.50
2019-05-25T18:00:38.549Z,6.03
2019-05-25T18:03:09.860Z,4.93
2019-05-25T18:05:41.289Z,6.40
2019-05-25T18:08:12.757Z,5.80
2019-05-25T18:10:52.771Z,4.33
2019-05-25T18:13:18.091Z,6.20
2019-05-25T18:15:49.687Z,3.03
2019-05-25T18:18:20.964Z,5.70
2019-05-25T18:20:52.426Z,7.17
2019-05-25T18:23:23.807Z,8.03
2019-05-25T18:25:55.458Z,3.70
2019-05-25T18:28:26.816Z,5.97
2019-05-25T18:30:58.815Z,10.70
2019-05-25T18:33:30.112Z,5.13
2019-05-25T18:36:01.711Z,8.00
2019-05-25T18:38:32.974Z,4.10
2019-05-25T18:41:04.270Z,5.07
2019-05-25T18:43:36.733Z,5.77
2019-05-25T18:46:08.148Z,4.70
2019-05-25T18:48:39.648Z,3.77
2019-05-25T18:51:12.113Z,7.47
2019-05-25T18:53:43.492Z,5.23
2019-05-25T18:56:15.045Z,7.10
2019-05-25T18:58:46.341Z,10.10
2019-05-25T19:01:17.629Z,10.23
2019-05-25T19:03:50.186Z,4.00
2019-05-25T19:06:21.539Z,6.27
2019-05-25T19:08:53.354Z,5.63
2019-05-25T19:11:25.225Z,10.87
2019-05-25T19:13:56.740Z,7.93
2019-05-25T19:16:28.939Z,10.47
2019-05-25T19:19:00.334Z,10.77
2019-05-25T19:21:31.790Z,12.53
2019-05-25T19:24:03.121Z,8.70
2019-05-25T19:26:34.693Z,6.50
2019-05-25T19:29:06.316Z,9.93
2019-05-25T19:31:37.798Z,8.63
2019-05-25T19:34:09.157Z,6.83
2019-05-25T19:36:40.935Z,6.63
2019-05-25T19:39:12.729Z,7.83
2019-05-25T19:41:44.521Z,7.80
2019-05-25T19:44:16.329Z,10.63
2019-05-25T19:46:47.653Z,7.90
2019-05-25T19:49:19.626Z,8.93
2019-05-25T19:51:50.907Z,8.97
2019-05-25T19:54:22.302Z,6.60
2019-05-25T19:56:54.298Z,12.77
2019-05-25T19:59:25.708Z,11.10
2019-05-25T20:01:57.736Z,7.63
2019-05-25T20:04:29.062Z,12.00
2019-05-25T20:07:00.722Z,8.53
2019-05-25T20:09:32.143Z,9.43
2019-05-25T20:12:03.800Z,10.43
2019-05-25T20:14:35.502Z,8.23
2019-05-25T20:17:07.220Z,7.67
2019-05-25T20:19:38.769Z,6.97
2019-05-25T20:22:10.440Z,9.07
2019-05-25T20:24:41.789Z,9.23
2019-05-25T20:27:12.972Z,7.13
2019-05-25T20:29:45.158Z,8.20
2019-05-25T20:32:16.433Z,13.43
2019-05-25T20:34:48.043Z,10.20
2019-05-25T20:37:19.478Z,9.83
2019-05-25T20:39:51.069Z,10.07
2019-05-25T20:42:22.412Z,8.30
2019-05-25T20:44:54.003Z,10.53
2019-05-25T20:47:25.569Z,12.33
2019-05-25T20:49:56.932Z,12.33
2019-05-25T20:52:28.158Z,8.07
2019-05-25T20:54:59.636Z,11.90
2019-05-25T20:57:31.116Z,10.00
2019-05-25T21:00:04.644Z,17.97
2019-05-25T21:02:37.408Z,35.60
2019-05-25T21:05:08.902Z,49.77
2019-05-25T21:07:40.620Z,42.90
2019-05-25T21:10:11.890Z,52.00
2019-05-25T21:12:43.856Z,48.87
2019-05-25T21:15:16.978Z,30.17
2019-05-25T21:17:48.539Z,40.70
2019-05-25T21:20:19.933Z,29.70
2019-05-25T21:22:51.460Z,24.50
2019-05-25T21:25:22.872Z,19.20
2019-05-25T21:27:54.482Z,24.30
2019-05-25T21:30:26.330Z,24.60
2019-05-25T21:32:57.592Z,29.37
2019-05-25T21:35:30.216Z,34.13
2019-05-25T21:38:01.521Z,33.30
2019-05-25T21:40:33.037Z,31.30
2019-05-25T21:43:04.410Z,32.53
2019-05-25T21:45:36.063Z,27.80
2019-05-25T21:48:07.840Z,23.90
2019-05-25T21:50:39.486Z,21.20
2019-05-25T21:53:11.447Z,18.27
2019-05-25T21:55:42.980Z,16.57
2019-05-25T21:58:14.358Z,14.10
2019-05-25T22:00:46.021Z,12.93
2019-05-25T22:03:17.680Z,14.80
2019-05-25T22:05:49.188Z,14.17
2019-05-25T22:08:20.960Z,13.30
2019-05-25T22:10:52.248Z,11.57
2019-05-25T22:13:28.674Z,14.07
2019-05-25T22:15:57.582Z,14.63
2019-05-25T22:18:28.980Z,11.00
2019-05-25T22:21:01.183Z,10.60
2019-05-25T22:23:32.928Z,11.87
2019-05-25T22:26:04.488Z,12.47
2019-05-25T22:28:44.953Z,11.33
2019-05-25T22:31:09.626Z,12.23
2019-05-25T22:33:40.903Z,12.60
2019-05-25T22:36:12.245Z,14.73
2019-05-25T22:38:43.621Z,15.07
2019-05-25T22:41:15.077Z,11.93
2019-05-25T22:43:46.605Z,11.90
2019-05-25T22:46:18.095Z,12.50
2019-05-25T22:48:49.759Z,15.37
2019-05-25T22:51:21.091Z,10.67
2019-05-25T22:54:06.141Z,11.83
2019-05-25T22:56:37.347Z,10.70
2019-05-25T22:59:08.942Z,12.50
2019-05-25T23:01:40.806Z,11.33
2019-05-25T23:04:12.291Z,12.60
2019-05-25T23:06:57.104Z,15.37
2019-05-25T23:09:18.199Z,11.70
2019-05-25T23:11:49.744Z,13.60
2019-05-25T23:14:21.236Z,13.03
2019-05-25T23:16:52.608Z,17.57
2019-05-25T23:19:24.150Z,14.40
2019-05-25T23:21:55.724Z,12.80
2019-05-25T23:24:27.144Z,12.70
2019-05-25T23:26:59.685Z,10.90
2019-05-25T23:29:31.050Z,12.53
2019-05-25T23:32:02.592Z,13.53
2019-05-25T23:34:34.198Z,14.83
2019-05-25T23:37:14.112Z,11.87
2019-05-25T23:39:38.990Z,11.93
2019-05-25T23:42:10.745Z,11.67
2019-05-25T23:44:42.108Z,13.60
2019-05-25T23:47:13.388Z,8.97
2019-05-25T23:49:45.012Z,15.03
2019-05-25T23:52:16.317Z,11.37
2019-05-25T23:54:48.116Z,12.27
2019-05-25T23:57:19.469Z,11.07
2019-05-25T23:59:50.947Z,11.80
